Huvudsida
METAR-TAF:

METAR-TAF

Flygplatser :

Netaji Subhash Chandra Bose International Airport

Calcutta, Indien

latitud: 22-39N, longitud: 088-27E, höjd: 4 m

Aktuellt väderrapport

Denna rapport gjordes för 24 minuter sedan, klockan 00:30 UTC
Stilla vind
Temperatur 13°C
Fuktighet 94%
Tryck 1014 hPa
Sikt: 1600 m
fuktdis

METAR: VECC 100030Z 00000KT 1600 BR NSC 13/12 Q1014 BECMG 1500 BR

Tid: 06:24 (00:54 UTC)

Väderprognos

Denna rapport gjordes för 4 timmar och 54 minuter sedan, klockan 20:00 UTC
Prognos gäller från 09 kl. 21 UTC till 10 kl. 06 UTC
Vind kt från nord
Sikt: 2200 m
fuktdis
Blir
från 10 kl. 00 UTC till 10 kl. 02 UTC
Vind kt från nord
Sikt: 1400 m
fuktdis
Blir
från 10 kl. 04 UTC till 10 kl. 06 UTC
Vind 5 kt från nord
Sikt: 2500 m
torrdis

TAF: VECC 092000Z 0921/1006 00000KT 2200 BR NSC BECMG 1000/1002 00000KT 1400 BR BECMG 1004/1006 35005KT 2500 HZ

Aktuella väderrapporter och prognoser från 4000 flygplatser (METAR- och TAF-rapporter).

De tillgängliga stationerna syns som gula och röda prickar på kartan.

För musen över prickarna för att se namnen på stationerna.

Klicka sedan för att få väderrapporter och prognoser.

För att ändra kartan: Klicka på de gröna knapparna med ett svart kors på för att zooma in; den gröna knappen med ett streck på för att zooma ut; eller på de gröna pilarna för angränsande kartor.


METAR-TAF: